Time,TemperatureF,DewpointF,PressureIn,WindDirection,WindDirectionDegrees,WindSpeedMPH,WindSpeedGustMPH,Humidity,HourlyPrecipIn,Conditions,Clouds,dailyrainin,SoftwareType,DateUTC
2013-10-27 00:09:00,66.7,57.8,30.07,NNE,22,1.1,-999.0,73,-99.99,,,0.00,Acu-Link.com,2013-10-27 04:09:00,
2013-10-27 00:24:00,66.7,57.8,30.07,NNE,22,0.0,-999.0,73,-99.99,,,0.00,Acu-Link.com,2013-10-27 04:24:00,
2013-10-27 00:39:00,66.9,57.6,30.06,NNE,22,1.7,-999.0,72,-99.99,,,0.00,Acu-Link.com,2013-10-27 04:39:00,
2013-10-27 00:55:00,66.9,57.2,30.06,NNE,22,0.0,-999.0,71,-99.99,,,0.00,Acu-Link.com,2013-10-27 04:55:00,
2013-10-27 01:10:00,66.9,56.8,30.06,NNE,22,0.0,-999.0,70,-99.99,,,0.00,Acu-Link.com,2013-10-27 05:10:00,
2013-10-27 01:25:00,66.7,56.6,30.06,NNE,22,0.0,-999.0,70,-99.99,,,0.00,Acu-Link.com,2013-10-27 05:25:00,
2013-10-27 01:40:00,66.6,56.5,30.05,NNE,22,0.0,-999.0,70,-99.99,,,0.00,Acu-Link.com,2013-10-27 05:40:00,
2013-10-27 01:55:00,66.6,56.5,30.05,NNE,22,1.1,-999.0,70,-99.99,,,0.00,Acu-Link.com,2013-10-27 05:55:00,
2013-10-27 02:11:00,66.4,56.3,30.05,NNE,22,0.0,-999.0,70,-99.99,,,0.00,Acu-Link.com,2013-10-27 06:11:00,
2013-10-27 02:26:00,66.0,55.9,30.05,NNE,22,0.0,-999.0,70,-99.99,,,0.00,Acu-Link.com,2013-10-27 06:26:00,
2013-10-27 02:41:00,65.7,55.6,30.04,NNE,22,0.0,-999.0,70,-99.99,,,0.00,Acu-Link.com,2013-10-27 06:41:00,
2013-10-27 02:56:00,65.3,55.6,30.04,NNE,22,0.0,-999.0,71,-99.99,,,0.00,Acu-Link.com,2013-10-27 06:56:00,
2013-10-27 03:11:00,65.1,55.8,30.04,NNE,22,1.7,-999.0,72,-99.99,,,0.00,Acu-Link.com,2013-10-27 07:11:00,
2013-10-27 03:26:00,64.8,55.9,30.04,NNE,22,1.1,-999.0,73,-99.99,,,0.00,Acu-Link.com,2013-10-27 07:26:00,
2013-10-27 03:42:00,64.8,55.9,30.03,NNE,22,0.0,-999.0,73,-99.99,,,0.00,Acu-Link.com,2013-10-27 07:42:00,
2013-10-27 03:57:00,64.4,55.6,30.03,NNE,22,1.7,-999.0,73,-99.99,,,0.00,Acu-Link.com,2013-10-27 07:57:00,
2013-10-27 04:13:00,64.4,55.9,30.02,NNE,22,0.0,-999.0,74,-99.99,,,0.00,Acu-Link.com,2013-10-27 08:13:00,
2013-10-27 04:29:00,64.2,55.7,30.02,NNE,22,0.0,-999.0,74,-99.99,,,0.00,Acu-Link.com,2013-10-27 08:29:00,
2013-10-27 04:44:00,64.0,55.5,30.03,NNE,22,0.0,-999.0,74,-99.99,,,0.00,Acu-Link.com,2013-10-27 08:44:00,
2013-10-27 04:59:00,64.0,55.5,30.03,NNE,22,0.0,-999.0,74,-99.99,,,0.00,Acu-Link.com,2013-10-27 08:59:00,
2013-10-27 05:14:00,63.9,55.8,30.03,NNE,22,0.0,-999.0,75,-99.99,,,0.00,Acu-Link.com,2013-10-27 09:14:00,
2013-10-27 05:29:00,63.5,55.4,30.03,NNE,22,0.0,-999.0,75,-99.99,,,0.00,Acu-Link.com,2013-10-27 09:29:00,
2013-10-27 05:44:00,63.5,55.8,30.02,NNE,22,0.0,-999.0,76,-99.99,,,0.00,Acu-Link.com,2013-10-27 09:44:00,
2013-10-27 06:00:00,63.3,56.0,30.02,NNE,22,0.0,-999.0,77,-99.99,,,0.00,Acu-Link.com,2013-10-27 10:00:00,
2013-10-27 06:15:00,62.6,57.0,30.03,NNE,22,0.0,-999.0,82,-99.99,,,0.00,Acu-Link.com,2013-10-27 10:15:00,
2013-10-27 06:30:00,62.6,57.7,30.03,NNE,22,0.0,-999.0,84,-99.99,,,0.00,Acu-Link.com,2013-10-27 10:30:00,
2013-10-27 06:45:00,62.6,58.0,30.03,NNE,22,0.0,-999.0,85,-99.99,,,0.00,Acu-Link.com,2013-10-27 10:45:00,
2013-10-27 07:01:00,62.8,58.9,30.04,NNE,22,1.1,-999.0,87,-99.99,,,0.00,Acu-Link.com,2013-10-27 11:01:00,
2013-10-27 07:16:00,63.0,59.1,30.03,NNE,22,0.0,-999.0,87,-99.99,,,0.00,Acu-Link.com,2013-10-27 11:16:00,
2013-10-27 07:31:00,63.0,59.1,30.04,North,0,0.0,-999.0,87,-99.99,,,0.00,Acu-Link.com,2013-10-27 11:31:00,
2013-10-27 07:46:00,63.1,59.2,30.05,North,0,1.1,-999.0,87,-99.99,,,0.00,Acu-Link.com,2013-10-27 11:46:00,
2013-10-27 08:01:00,63.7,59.8,30.05,North,0,0.0,-999.0,87,-99.99,,,0.00,Acu-Link.com,2013-10-27 12:01:00,
2013-10-27 08:16:00,64.2,59.9,30.06,North,0,0.0,-999.0,86,-99.99,,,0.00,Acu-Link.com,2013-10-27 12:16:00,
2013-10-27 08:31:00,65.1,60.1,30.06,North,0,3.2,-999.0,84,-99.99,,,0.00,Acu-Link.com,2013-10-27 12:31:00,
2013-10-27 08:47:00,66.6,60.2,30.07,North,0,1.7,-999.0,80,-99.99,,,0.00,Acu-Link.com,2013-10-27 12:47:00,
2013-10-27 09:02:00,67.8,59.2,30.06,North,0,0.0,-999.0,74,-99.99,,,0.00,Acu-Link.com,2013-10-27 13:02:00,
2013-10-27 09:17:00,70.3,57.5,30.06,NNE,22,2.7,-999.0,64,-99.99,,,0.00,Acu-Link.com,2013-10-27 13:17:00,
2013-10-27 09:32:00,74.3,58.1,30.05,NNE,22,4.7,-999.0,57,-99.99,,,0.00,Acu-Link.com,2013-10-27 13:32:00,
2013-10-27 09:48:00,75.6,58.8,30.05,North,0,2.7,-999.0,56,-99.99,,,0.00,Acu-Link.com,2013-10-27 13:48:00,
2013-10-27 10:03:00,75.0,58.7,30.05,NNE,22,1.7,-999.0,57,-99.99,,,0.00,Acu-Link.com,2013-10-27 14:03:00,
2013-10-27 10:18:00,76.3,58.9,30.05,NNE,22,3.7,-999.0,55,-99.99,,,0.00,Acu-Link.com,2013-10-27 14:18:00,
2013-10-27 10:33:00,77.5,60.0,30.05,NNE,22,6.3,-999.0,55,-99.99,,,0.00,Acu-Link.com,2013-10-27 14:33:00,
2013-10-27 10:48:00,77.9,59.9,30.05,NNW,337,4.2,-999.0,54,-99.99,,,0.00,Acu-Link.com,2013-10-27 14:48:00,
2013-10-27 11:03:00,78.6,60.5,30.06,NNE,22,5.3,-999.0,54,-99.99,,,0.00,Acu-Link.com,2013-10-27 15:03:00,
2013-10-27 11:18:00,79.5,60.8,30.04,NNE,22,2.7,-999.0,53,-99.99,,,0.00,Acu-Link.com,2013-10-27 15:18:00,
2013-10-27 11:34:00,79.2,61.1,30.04,NW,315,2.7,-999.0,54,-99.99,,,0.00,Acu-Link.com,2013-10-27 15:34:00,
2013-10-27 11:49:00,81.0,62.8,30.03,North,0,1.7,-999.0,54,-99.99,,,0.00,Acu-Link.com,2013-10-27 15:49:00,
2013-10-27 12:04:00,80.1,60.9,30.03,NNE,22,3.7,-999.0,52,-99.99,,,0.00,Acu-Link.com,2013-10-27 16:04:00,
2013-10-27 12:19:00,80.2,60.4,30.03,NE,45,3.7,-999.0,51,-99.99,,,0.00,Acu-Link.com,2013-10-27 16:19:00,
2013-10-27 12:35:00,81.0,60.6,30.00,NNE,22,3.2,-999.0,50,-99.99,,,0.00,Acu-Link.com,2013-10-27 16:35:00,
2013-10-27 12:50:00,80.6,61.9,30.01,NE,45,1.1,-999.0,53,-99.99,,,0.00,Acu-Link.com,2013-10-27 16:50:00,
2013-10-27 13:20:00,82.9,60.6,29.96,NNE,22,3.2,-999.0,47,-99.99,,,0.00,Acu-Link.com,2013-10-27 17:20:00,
2013-10-27 13:36:00,79.5,59.8,29.99,NNE,22,2.7,-999.0,51,-99.99,,,0.00,Acu-Link.com,2013-10-27 17:36:00,
2013-10-27 13:51:00,80.1,60.3,30.00,NE,45,5.3,-999.0,51,-99.99,,,0.00,Acu-Link.com,2013-10-27 17:51:00,
2013-10-27 14:06:00,80.2,59.9,29.99,ENE,67,3.7,-999.0,50,-99.99,,,0.00,Acu-Link.com,2013-10-27 18:06:00,
2013-10-27 14:21:00,81.3,59.7,29.99,ENE,67,1.7,-999.0,48,-99.99,,,0.00,Acu-Link.com,2013-10-27 18:21:00,
2013-10-27 14:36:00,82.8,59.9,29.97,ENE,67,4.2,-999.0,46,-99.99,,,0.00,Acu-Link.com,2013-10-27 18:36:00,
2013-10-27 14:51:00,80.2,59.3,30.00,NE,45,3.7,-999.0,49,-99.99,,,0.00,Acu-Link.com,2013-10-27 18:51:00,
2013-10-27 15:06:00,80.1,58.6,30.00,NE,45,1.7,-999.0,48,-99.99,,,0.00,Acu-Link.com,2013-10-27 19:06:00,
2013-10-27 15:21:00,81.7,59.5,30.00,NNE,22,4.7,-999.0,47,-99.99,,,0.00,Acu-Link.com,2013-10-27 19:21:00,
2013-10-27 15:37:00,81.9,59.1,30.00,NE,45,4.7,-999.0,46,-99.99,,,0.00,Acu-Link.com,2013-10-27 19:37:00,
2013-10-27 16:01:00,82.9,60.0,30.03,NE,45,6.8,-999.0,46,-99.99,,,0.00,Acu-Link.com,2013-10-27 20:01:00,
2013-10-27 16:16:00,81.1,58.9,30.01,NNE,22,3.7,-999.0,47,-99.99,,,0.00,Acu-Link.com,2013-10-27 20:16:00,
2013-10-27 16:31:00,81.3,59.1,30.01,NNE,22,4.2,-999.0,47,-99.99,,,0.00,Acu-Link.com,2013-10-27 20:31:00,
2013-10-27 16:47:00,81.1,58.9,30.01,NE,45,5.3,-999.0,47,-99.99,,,0.00,Acu-Link.com,2013-10-27 20:47:00,
2013-10-27 17:02:00,81.0,58.2,30.01,NNE,22,2.7,-999.0,46,-99.99,,,0.00,Acu-Link.com,2013-10-27 21:02:00,
2013-10-27 17:17:00,80.6,58.5,30.01,NE,45,4.2,-999.0,47,-99.99,,,0.00,Acu-Link.com,2013-10-27 21:17:00,
2013-10-27 17:32:00,80.1,59.2,30.01,NNE,22,2.7,-999.0,49,-99.99,,,0.00,Acu-Link.com,2013-10-27 21:32:00,
2013-10-27 17:47:00,80.2,59.3,30.01,NE,45,4.7,-999.0,49,-99.99,,,0.00,Acu-Link.com,2013-10-27 21:47:00,
2013-10-27 18:02:00,79.3,59.0,30.01,NE,45,4.2,-999.0,50,-99.99,,,0.00,Acu-Link.com,2013-10-27 22:02:00,
2013-10-27 18:18:00,78.6,58.9,30.01,ENE,67,2.7,-999.0,51,-99.99,,,0.00,Acu-Link.com,2013-10-27 22:18:00,
2013-10-27 18:33:00,77.9,59.4,30.00,NNE,22,1.1,-999.0,53,-99.99,,,0.00,Acu-Link.com,2013-10-27 22:33:00,
2013-10-27 18:48:00,76.8,59.4,30.01,NNE,22,1.7,-999.0,55,-99.99,,,0.00,Acu-Link.com,2013-10-27 22:48:00,
2013-10-27 19:03:00,76.1,59.7,30.02,NNE,22,2.2,-999.0,57,-99.99,,,0.00,Acu-Link.com,2013-10-27 23:03:00,
2013-10-27 19:18:00,75.0,59.2,30.03,North,0,3.2,-999.0,58,-99.99,,,0.00,Acu-Link.com,2013-10-27 23:18:00,
2013-10-27 19:33:00,74.1,58.8,30.03,NE,45,2.2,-999.0,59,-99.99,,,0.00,Acu-Link.com,2013-10-27 23:33:00,
2013-10-27 19:48:00,73.4,59.1,30.05,NNE,22,4.2,-999.0,61,-99.99,,,0.00,Acu-Link.com,2013-10-27 23:48:00,
2013-10-27 20:03:00,73.0,59.2,30.06,NNE,22,1.7,-999.0,62,-99.99,,,0.00,Acu-Link.com,2013-10-28 00:03:00,
2013-10-27 20:18:00,72.5,59.2,30.06,North,0,3.7,-999.0,63,-99.99,,,0.00,Acu-Link.com,2013-10-28 00:18:00,
2013-10-27 20:34:00,72.0,59.1,30.07,NNE,22,0.0,-999.0,64,-99.99,,,0.00,Acu-Link.com,2013-10-28 00:34:00,
2013-10-27 20:49:00,71.4,59.4,30.07,NNE,22,0.0,-999.0,66,-99.99,,,0.00,Acu-Link.com,2013-10-28 00:49:00,
2013-10-27 21:04:00,70.9,59.4,30.07,North,0,1.1,-999.0,67,-99.99,,,0.00,Acu-Link.com,2013-10-28 01:04:00,
2013-10-27 21:19:00,70.3,59.6,30.07,North,0,1.1,-999.0,69,-99.99,,,0.00,Acu-Link.com,2013-10-28 01:19:00,
2013-10-27 21:34:00,69.8,60.0,30.07,North,0,1.7,-999.0,71,-99.99,,,0.00,Acu-Link.com,2013-10-28 01:34:00,
2013-10-27 21:49:00,69.4,60.0,30.08,North,0,1.1,-999.0,72,-99.99,,,0.00,Acu-Link.com,2013-10-28 01:49:00,
2013-10-27 22:04:00,69.3,60.3,30.08,North,0,0.0,-999.0,73,-99.99,,,0.00,Acu-Link.com,2013-10-28 02:04:00,
2013-10-27 22:19:00,68.5,60.3,30.08,North,0,0.0,-999.0,75,-99.99,,,0.00,Acu-Link.com,2013-10-28 02:19:00,
2013-10-27 22:34:00,68.0,59.8,30.08,North,0,0.0,-999.0,75,-99.99,,,0.00,Acu-Link.com,2013-10-28 02:34:00,
2013-10-27 22:49:00,67.5,60.8,30.09,North,0,0.0,-999.0,79,-99.99,,,0.00,Acu-Link.com,2013-10-28 02:49:00,
2013-10-27 23:05:00,67.1,60.7,30.09,North,0,0.0,-999.0,80,-99.99,,,0.00,Acu-Link.com,2013-10-28 03:05:00,
2013-10-27 23:20:00,66.9,61.2,30.08,North,0,0.0,-999.0,82,-99.99,,,0.00,Acu-Link.com,2013-10-28 03:20:00,
2013-10-27 23:35:00,66.9,61.9,30.09,North,0,0.0,-999.0,84,-99.99,,,0.00,Acu-Link.com,2013-10-28 03:35:00,
2013-10-27 23:50:00,66.4,61.4,30.08,North,0,0.0,-999.0,84,-99.99,,,0.00,Acu-Link.com,2013-10-28 03:50:00,